Time;durP1;ratioP1;P1;durP2;ratioP2;P2;SDS_P1;SDS_P2;PMS_P1;PMS_P2;Temp;Humidity;BMP_temperature;BMP_pressure;BME280_temperature;BME280_humidity;BME280_pressure;Samples;Min_cycle;Max_cycle;Signal;HPM_P1;HPM_P2
2021/06/07 00:00:22;;;;;;;4.53;3.42;;;17.20;93.70;;;;;;5094227;28;20028;-96
2021/06/07 00:02:58;;;;;;;4.33;3.40;;;17.20;93.70;;;;;;5094230;28;20028;-94
2021/06/07 00:05:24;;;;;;;6.85;4.20;;;17.20;93.60;;;;;;5093941;28;20027;-95
2021/06/07 00:07:53;;;;;;;5.10;3.70;;;17.10;94.00;;;;;;5094598;28;20030;-96
2021/06/07 00:10:22;;;;;;;5.18;3.78;;;17.10;94.00;;;;;;5077203;28;20035;-96
2021/06/07 00:12:49;;;;;;;6.30;3.85;;;17.10;93.90;;;;;;5094497;28;20020;-96
2021/06/07 00:15:20;;;;;;;5.20;3.50;;;17.10;94.10;;;;;;5094053;28;20032;-95
2021/06/07 00:18:01;;;;;;;4.57;3.67;;;17.00;94.20;;;;;;5077537;28;20473;-96
2021/06/07 00:20:40;;;;;;;4.70;3.35;;;17.10;94.10;;;;;;5094459;28;20385;-96
2021/06/07 00:23:10;;;;;;;4.93;3.05;;;17.00;94.20;;;;;;5095098;28;20039;-96
2021/06/07 00:25:40;;;;;;;5.93;3.55;;;17.00;94.20;;;;;;5094829;28;20020;-95
2021/06/07 00:28:08;;;;;;;5.18;3.40;;;17.00;94.10;;;;;;5093606;28;20086;-96
2021/06/07 00:30:35;;;;;;;3.60;3.20;;;17.00;94.10;;;;;;5096357;28;20103;-96
2021/06/07 00:33:01;;;;;;;5.65;3.40;;;17.00;94.20;;;;;;5077059;28;20071;-95
2021/06/07 00:35:30;;;;;;;5.28;3.10;;;17.00;94.20;;;;;;5094274;28;20024;-93
2021/06/07 00:37:57;;;;;;;6.88;3.20;;;17.10;94.10;;;;;;5094510;28;20027;-94
2021/06/07 00:40:29;;;;;;;4.50;3.35;;;17.00;94.50;;;;;;5076113;28;20044;-94
2021/06/07 00:42:58;;;;;;;3.67;3.20;;;17.00;94.80;;;;;;5074312;28;20028;-92
2021/06/07 00:45:42;;;;;;;5.00;3.30;;;16.90;95.00;;;;;;5073050;28;20024;-92
2021/06/07 00:48:12;;;;;;;4.32;3.13;;;16.80;95.20;;;;;;5056485;28;20465;-93
2021/06/07 00:50:48;;;;;;;4.35;3.40;;;16.80;95.40;;;;;;5073160;28;20545;-92
2021/06/07 00:53:18;;;;;;;3.38;3.03;;;16.80;95.40;;;;;;5073336;28;20036;-92
2021/06/07 00:55:55;;;;;;;3.75;3.35;;;16.90;95.30;;;;;;5073671;28;20028;-92
2021/06/07 00:58:23;;;;;;;3.30;3.00;;;16.80;95.50;;;;;;5073122;28;20482;-91
2021/06/07 01:00:49;;;;;;;4.50;3.50;;;16.90;95.20;;;;;;5089676;28;20082;-91
2021/06/07 01:03:17;;;;;;;6.13;3.50;;;16.80;95.50;;;;;;5074351;28;20024;-92
2021/06/07 01:05:48;;;;;;;4.88;3.85;;;16.70;95.80;;;;;;5073947;28;20025;-93
2021/06/07 01:08:15;;;;;;;6.40;3.47;;;16.70;95.90;;;;;;5072753;28;20107;-91
2021/06/07 01:10:42;;;;;;;4.35;3.30;;;16.70;95.80;;;;;;5072785;28;20056;-92
2021/06/07 01:13:08;;;;;;;4.88;3.70;;;16.70;95.90;;;;;;5072821;28;20047;-93
2021/06/07 01:15:34;;;;;;;5.70;4.00;;;16.70;96.00;;;;;;5072869;28;20115;-92
2021/06/07 01:18:03;;;;;;;4.78;3.40;;;16.70;96.10;;;;;;5072815;28;20052;-95
2021/06/07 01:20:33;;;;;;;4.05;2.83;;;16.70;96.00;;;;;;5072674;28;20016;-92
2021/06/07 01:22:59;;;;;;;3.88;3.05;;;16.70;95.70;;;;;;5072834;28;20025;-92
2021/06/07 01:25:43;;;;;;;4.03;3.20;;;16.80;95.60;;;;;;5089563;28;20373;-94
2021/06/07 01:28:12;;;;;;;3.92;3.38;;;16.80;95.90;;;;;;5072628;28;20025;-92
2021/06/07 01:30:43;;;;;;;4.50;3.78;;;16.80;95.80;;;;;;5056103;28;20119;-92
2021/06/07 01:33:11;;;;;;;4.43;3.08;;;16.60;96.30;;;;;;5072537;28;20045;-92
2021/06/07 01:35:39;;;;;;;4.13;3.08;;;16.70;96.10;;;;;;5072523;28;20402;-92
2021/06/07 01:38:06;;;;;;;5.03;3.88;;;16.70;96.30;;;;;;5072575;28;20040;-92
2021/06/07 01:40:35;;;;;;;3.47;3.17;;;16.60;96.60;;;;;;5075036;28;20029;-92
2021/06/07 01:43:02;;;;;;;5.38;3.30;;;16.60;96.70;;;;;;5060442;28;20024;-93
2021/06/07 01:45:29;;;;;;;3.95;3.33;;;16.60;96.80;;;;;;5076492;28;20123;-94
2021/06/07 01:48:04;;;;;;;4.28;3.40;;;16.60;97.00;;;;;;5059679;28;20029;-95
2021/06/07 01:50:30;;;;;;;4.22;3.70;;;16.60;97.00;;;;;;5077233;28;20035;-93
2021/06/07 01:52:56;;;;;;;3.80;3.47;;;16.50;97.30;;;;;;5090320;28;20032;-92
2021/06/07 01:55:26;;;;;;;3.17;2.92;;;16.40;97.50;;;;;;5075906;28;20028;-92
2021/06/07 01:57:52;;;;;;;5.00;4.10;;;16.50;97.60;;;;;;5092839;28;20036;-90
2021/06/07 02:00:39;;;;;;;5.80;3.35;;;16.40;97.80;;;;;;5075958;28;20056;-92
2021/06/07 02:03:07;;;;;;;3.75;3.45;;;16.40;97.90;;;;;;5077490;28;20051;-92
2021/06/07 02:05:37;;;;;;;4.00;3.58;;;16.40;98.00;;;;;;5076208;28;20481;-93
2021/06/07 02:08:09;;;;;;;3.80;3.33;;;16.40;98.20;;;;;;5078243;28;20116;-92
2021/06/07 02:10:44;;;;;;;5.05;3.45;;;16.50;98.00;;;;;;5096011;28;20024;-92
2021/06/07 02:13:10;;;;;;;4.65;3.63;;;16.40;98.30;;;;;;5079263;28;20032;-94
2021/06/07 02:15:37;;;;;;;4.40;4.00;;;16.40;98.30;;;;;;5096449;28;20051;-94
2021/06/07 02:18:08;;;;;;;4.43;3.88;;;16.40;98.60;;;;;;5097589;28;20022;-93
2021/06/07 02:20:35;;;;;;;8.43;6.10;;;16.40;98.70;;;;;;5095681;28;20359;-92
2021/06/07 02:23:07;;;;;;;6.80;5.38;;;16.50;98.50;;;;;;5096959;28;20028;-92
2021/06/07 02:25:42;;;;;;;4.45;3.92;;;16.50;98.60;;;;;;5079445;28;20032;-93
2021/06/07 02:28:18;;;;;;;4.00;3.67;;;16.50;98.40;;;;;;5095662;28;20025;-93
2021/06/07 02:30:46;;;;;;;6.30;3.67;;;16.50;98.70;;;;;;5096800;28;20024;-92
2021/06/07 02:33:15;;;;;;;4.00;3.60;;;16.50;98.60;;;;;;5095536;28;20056;-94
2021/06/07 02:35:49;;;;;;;4.05;3.65;;;16.60;98.50;;;;;;5095777;28;20020;-94
2021/06/07 02:38:24;;;;;;;4.70;3.63;;;16.60;98.20;;;;;;5089647;28;20020;-92
2021/06/07 02:40:51;;;;;;;3.97;3.60;;;16.60;98.40;;;;;;5059621;28;20024;-95
2021/06/07 02:43:18;;;;;;;4.15;3.08;;;16.60;98.40;;;;;;5075034;28;20063;-93
2021/06/07 02:46:06;;;;;;;3.58;3.15;;;16.70;98.20;;;;;;5075096;28;20095;-93
2021/06/07 02:48:37;;;;;;;4.35;3.20;;;16.80;97.90;;;;;;5061055;28;20123;-93
2021/06/07 02:51:18;;;;;;;3.42;3.13;;;16.90;97.90;;;;;;5077161;28;20386;-95
2021/06/07 02:53:49;;;;;;;6.93;3.40;;;16.90;97.60;;;;;;5074852;28;20031;-93
2021/06/07 02:56:27;;;;;;;3.17;2.95;;;17.00;97.50;;;;;;5074791;28;20024;-90
2021/06/07 02:58:53;;;;;;;7.07;4.40;;;17.10;97.40;;;;;;5075865;28;20035;-92
2021/06/07 03:01:19;;;;;;;4.55;3.95;;;16.80;97.90;;;;;;5075875;28;20466;-90
2021/06/07 03:03:54;;;;;;;4.47;3.92;;;16.70;98.00;;;;;;5074656;28;20032;-93
2021/06/07 03:06:22;;;;;;;4.18;3.78;;;16.80;98.00;;;;;;5075695;28;20486;-90
2021/06/07 03:09:03;;;;;;;;;;;;;;;;;;;;;
2021/06/07 03:11:34;;;;;;;6.50;3.90;;;16.90;97.80;;;;;;5075901;28;20016;-91
2021/06/07 03:14:00;;;;;;;7.80;4.00;;;16.90;97.60;;;;;;5074634;28;20025;-91
2021/06/07 03:16:30;;;;;;;4.63;4.22;;;17.00;97.60;;;;;;5074398;28;20021;-91
2021/06/07 03:18:58;;;;;;;6.47;4.78;;;16.90;97.60;;;;;;5090889;28;20497;-92
2021/06/07 03:21:26;;;;;;;6.53;4.10;;;16.90;97.60;;;;;;5075359;28;20021;-93
2021/06/07 03:24:12;;;;;;;7.38;3.85;;;16.90;97.60;;;;;;5075298;28;20028;-91
2021/06/07 03:26:56;;;;;;;6.13;4.18;;;16.90;97.50;;;;;;5075060;28;20039;-91
2021/06/07 03:29:24;;;;;;;5.38;4.28;;;16.90;97.60;;;;;;5074148;28;20355;-91
2021/06/07 03:31:55;;;;;;;9.20;5.05;;;16.80;97.70;;;;;;5073686;28;20075;-91
2021/06/07 03:34:25;;;;;;;6.45;4.43;;;16.90;97.70;;;;;;5075094;28;20028;-92
2021/06/07 03:36:56;;;;;;;5.20;4.55;;;17.00;97.40;;;;;;5074024;28;20028;-91
2021/06/07 03:39:24;;;;;;;5.80;4.70;;;17.00;97.40;;;;;;5073834;28;20040;-91
2021/06/07 03:41:49;;;;;;;6.00;4.75;;;17.10;97.30;;;;;;5057639;28;20032;-91
2021/06/07 03:44:16;;;;;;;9.23;5.15;;;17.10;97.30;;;;;;5075241;28;20051;-91
2021/06/07 03:46:51;;;;;;;7.28;4.82;;;17.00;97.60;;;;;;5074170;28;20056;-92
2021/06/07 03:49:18;;;;;;;5.57;3.80;;;17.00;97.50;;;;;;5058749;28;20025;-92
2021/06/07 03:51:44;;;;;;;6.70;4.45;;;17.00;97.50;;;;;;5073723;28;20059;-91
2021/06/07 03:54:11;;;;;;;8.15;4.60;;;17.10;97.40;;;;;;5074027;28;20102;-91
2021/06/07 03:56:40;;;;;;;5.18;4.68;;;17.10;97.60;;;;;;5075436;28;20022;-93
2021/06/07 03:59:14;;;;;;;8.50;4.93;;;17.10;97.20;;;;;;5074007;28;20161;-91
2021/06/07 04:01:40;;;;;;;4.70;3.83;;;17.20;97.20;;;;;;5073700;28;20020;-92
2021/06/07 04:04:06;;;;;;;4.90;4.40;;;17.40;97.00;;;;;;5074451;28;20095;-90
2021/06/07 04:06:33;;;;;;;4.60;4.13;;;17.40;97.00;;;;;;5076069;28;20016;-94
2021/06/07 04:09:03;;;;;;;5.70;4.40;;;17.30;96.90;;;;;;5074793;28;20035;-91
2021/06/07 04:11:29;;;;;;;;;;;17.50;96.70;;;;;;5074909;28;20025;-91
2021/06/07 04:13:55;;;;;;;7.28;4.28;;;17.50;96.80;;;;;;5090203;28;19938;-90
2021/06/07 04:16:21;;;;;;;6.30;3.95;;;17.60;96.80;;;;;;5073416;28;20028;-91
2021/06/07 04:18:47;;;;;;;5.00;4.32;;;17.70;96.60;;;;;;5057386;28;20021;-94
2021/06/07 04:21:12;;;;;;;5.78;4.03;;;17.70;96.40;;;;;;5091985;28;20432;-91
2021/06/07 04:23:44;;;;;;;5.45;4.45;;;17.80;96.40;;;;;;5073664;28;20028;-92
2021/06/07 04:26:10;;;;;;;6.90;4.70;;;17.80;96.40;;;;;;5073996;28;20032;-96
2021/06/07 04:28:39;;;;;;;6.13;4.47;;;17.80;96.20;;;;;;5074847;28;20045;-91
2021/06/07 04:31:05;;;;;;;5.80;4.65;;;17.60;96.50;;;;;;5072546;28;20101;-89
2021/06/07 04:33:45;;;;;;;;;;;;;;;;;;;;;
2021/06/07 04:36:11;;;;;;;5.75;4.85;;;17.60;96.60;;;;;;5071305;28;20037;-85
2021/06/07 04:38:37;;;;;;;8.63;4.82;;;17.70;96.80;;;;;;5072802;28;20514;-85
2021/06/07 04:41:03;;;;;;;6.28;4.60;;;17.90;96.50;;;;;;5072267;28;20433;-85
2021/06/07 04:43:28;;;;;;;6.40;5.10;;;17.80;96.40;;;;;;5073941;28;20033;-85
2021/06/07 04:45:58;;;;;;;7.57;5.00;;;17.90;96.70;;;;;;5073263;28;20474;-85
2021/06/07 04:48:24;;;;;;;5.43;4.70;;;17.90;96.50;;;;;;5073335;28;20028;-84
2021/06/07 04:50:51;;;;;;;7.38;5.13;;;17.90;96.60;;;;;;5072246;28;20021;-85
2021/06/07 04:53:17;;;;;;;10.88;5.32;;;17.90;96.60;;;;;;5092207;28;20046;-86
2021/06/07 04:55:47;;;;;;;4.07;3.67;;;17.90;96.60;;;;;;5093117;28;20017;-85
2021/06/07 04:58:26;;;;;;;8.43;5.10;;;18.00;96.50;;;;;;5092464;28;20016;-85
2021/06/07 05:00:59;;;;;;;9.77;5.05;;;18.20;96.40;;;;;;5093567;28;20028;-84
2021/06/07 05:03:29;;;;;;;8.75;5.60;;;18.30;96.30;;;;;;5093390;28;20031;-85
2021/06/07 05:06:04;;;;;;;27.60;19.90;;;18.40;96.50;;;;;;5092995;28;20486;-93
2021/06/07 05:08:30;;;;;;;10.00;5.72;;;18.60;96.20;;;;;;5079678;28;20048;-89
2021/06/07 05:10:57;;;;;;;10.73;4.82;;;18.70;95.90;;;;;;5072472;28;20033;-88
2021/06/07 05:13:26;;;;;;;7.15;4.43;;;18.70;95.40;;;;;;5072204;28;20043;-87
2021/06/07 05:15:53;;;;;;;4.90;4.40;;;18.70;95.50;;;;;;5076298;28;20028;-88
2021/06/07 05:18:26;;;;;;;5.55;3.95;;;18.80;95.30;;;;;;5075868;28;20477;-87
2021/06/07 05:21:10;;;;;;;;;;;;;;;;;;;;;
2021/06/07 05:23:41;;;;;;;6.00;3.85;;;18.90;95.10;;;;;;5095538;28;20704;-91
2021/06/07 05:26:30;;;;;;;9.63;5.45;;;18.80;95.30;;;;;;5097190;28;20036;-90
2021/06/07 05:28:59;;;;;;;5.88;4.30;;;18.70;95.20;;;;;;5096757;28;20028;-88
2021/06/07 05:31:31;;;;;;;7.50;5.10;;;18.70;95.50;;;;;;5096965;28;20027;-89
2021/06/07 05:33:57;;;;;;;5.22;4.25;;;18.50;95.80;;;;;;5078120;28;20296;-87
2021/06/07 05:36:25;;;;;;;5.50;4.22;;;18.60;95.80;;;;;;5096478;28;20024;-87
2021/06/07 05:39:08;;;;;;;7.68;4.50;;;18.70;95.70;;;;;;5095827;28;20501;-88
2021/06/07 05:41:40;;;;;;;7.00;4.70;;;18.80;95.50;;;;;;5096066;28;20047;-88
2021/06/07 05:44:09;;;;;;;7.13;5.07;;;19.00;95.30;;;;;;5079354;28;20024;-87
2021/06/07 05:46:37;;;;;;;5.90;4.53;;;18.90;95.20;;;;;;5095748;28;20028;-87
2021/06/07 05:49:03;;;;;;;6.75;4.55;;;18.80;95.20;;;;;;5095202;28;20034;-87
2021/06/07 05:51:34;;;;;;;8.25;5.07;;;18.80;95.40;;;;;;5095543;28;20543;-86
2021/06/07 05:54:07;;;;;;;6.75;4.97;;;18.90;95.40;;;;;;5095042;28;20028;-87
2021/06/07 05:56:34;;;;;;;4.88;4.38;;;19.00;95.40;;;;;;5094608;28;20036;-87
2021/06/07 05:59:06;;;;;;;6.40;4.65;;;18.90;95.20;;;;;;5095013;28;20028;-86
2021/06/07 06:01:48;;;;;;;5.75;4.65;;;19.00;95.20;;;;;;5093329;28;20035;-86
2021/06/07 06:04:16;;;;;;;5.38;4.47;;;19.20;95.00;;;;;;5094953;28;20024;-86
2021/06/07 06:06:42;;;;;;;10.32;5.00;;;19.40;94.90;;;;;;5078600;28;20039;-89
2021/06/07 06:09:08;;;;;;;9.05;4.45;;;19.40;94.80;;;;;;5096058;28;20020;-90
2021/06/07 06:11:36;;;;;;;9.82;8.88;;;19.30;94.80;;;;;;5095930;28;20377;-91
2021/06/07 06:14:03;;;;;;;13.70;11.52;;;19.50;94.80;;;;;;5078470;28;20040;-89
2021/06/07 06:16:31;;;;;;;10.48;8.73;;;19.70;94.40;;;;;;5078071;28;20040;-94
2021/06/07 06:18:57;;;;;;;11.52;8.48;;;19.90;94.00;;;;;;5100756;28;20049;-96
2021/06/07 06:21:27;;;;;;;6.32;4.90;;;19.90;94.10;;;;;;5098606;28;20405;-92
2021/06/07 06:23:54;;;;;;;9.82;4.10;;;19.90;93.90;;;;;;5079695;28;20366;-93
2021/06/07 06:26:32;;;;;;;6.00;3.97;;;20.00;93.90;;;;;;5095193;28;20470;-96
2021/06/07 06:28:58;;;;;;;8.77;4.50;;;20.00;93.50;;;;;;5096026;28;20122;-94
2021/06/07 06:31:24;;;;;;;7.32;4.32;;;19.80;94.00;;;;;;5095510;28;20088;-93
2021/06/07 06:33:53;;;;;;;4.65;3.90;;;19.80;93.70;;;;;;5095603;28;20482;-91
2021/06/07 06:36:24;;;;;;;5.30;4.10;;;20.10;93.60;;;;;;5096210;28;20047;-90
2021/06/07 06:38:56;;;;;;;6.03;3.58;;;20.20;93.10;;;;;;5095236;28;20111;-91
2021/06/07 06:41:25;;;;;;;4.78;3.42;;;20.30;93.10;;;;;;5095627;28;20099;-92
2021/06/07 06:43:50;;;;;;;4.95;3.30;;;20.40;92.60;;;;;;5094924;28;20067;-92
2021/06/07 06:46:19;;;;;;;3.78;3.45;;;20.70;92.50;;;;;;5096308;28;20024;-91
2021/06/07 06:48:50;;;;;;;4.45;3.90;;;20.80;91.50;;;;;;5094783;28;20032;-93
2021/06/07 06:51:21;;;;;;;5.88;3.30;;;20.70;91.90;;;;;;5058709;28;20497;-91
2021/06/07 06:53:46;;;;;;;5.90;3.40;;;20.70;92.10;;;;;;5059562;28;20432;-91
2021/06/07 06:56:21;;;;;;;3.63;3.30;;;20.80;91.60;;;;;;5074947;28;20029;-89
2021/06/07 06:58:47;;;;;;;3.38;3.08;;;21.10;91.60;;;;;;5076626;28;20041;-94
2021/06/07 07:01:23;;;;;;;5.97;3.90;;;21.20;90.70;;;;;;5074818;28;20378;-93
2021/06/07 07:03:51;;;;;;;4.70;3.53;;;21.10;91.10;;;;;;5059274;28;20474;-90
2021/06/07 07:06:19;;;;;;;4.78;3.65;;;21.40;91.10;;;;;;5075913;28;20137;-92
2021/06/07 07:08:47;;;;;;;3.50;3.20;;;21.50;91.10;;;;;;5074391;28;20027;-92
2021/06/07 07:11:32;;;;;;;4.07;3.70;;;21.70;90.60;;;;;;5075351;28;20039;-91
2021/06/07 07:14:14;;;;;;;5.03;3.53;;;21.80;90.90;;;;;;5092164;28;20039;-96
2021/06/07 07:16:51;;;;;;;3.47;3.17;;;21.80;90.40;;;;;;5081954;28;20027;-96
2021/06/07 07:19:24;;;;;;;8.07;5.78;;;22.00;90.40;;;;;;5080408;28;20025;-90
2021/06/07 07:21:50;;;;;;;4.82;3.38;;;22.10;90.00;;;;;;5057831;28;20031;-91
2021/06/07 07:24:19;;;;;;;6.35;4.10;;;21.80;89.50;;;;;;5074252;28;20469;-92
2021/06/07 07:26:45;;;;;;;4.28;3.38;;;21.70;90.30;;;;;;5057904;28;20043;-91
2021/06/07 07:29:19;;;;;;;5.30;3.72;;;21.90;90.20;;;;;;5056899;28;20120;-90
2021/06/07 07:31:58;;;;;;;;;;;;;;;;;;;;;
2021/06/07 07:34:24;;;;;;;3.92;3.63;;;21.70;90.00;;;;;;5075052;28;20033;-87
2021/06/07 07:36:49;;;;;;;4.20;3.80;;;21.80;90.00;;;;;;5073688;28;20112;-93
2021/06/07 07:39:29;;;;;;;6.50;3.95;;;21.80;90.10;;;;;;5072688;28;20033;-90
2021/06/07 07:41:58;;;;;;;7.75;4.70;;;21.80;90.30;;;;;;5074058;28;20027;-93
2021/06/07 07:44:33;;;;;;;5.45;3.65;;;21.60;90.60;;;;;;5073804;28;20478;-94
2021/06/07 07:47:05;;;;;;;3.92;3.50;;;21.50;90.30;;;;;;5074008;28;20029;-93
2021/06/07 07:49:35;;;;;;;3.90;3.50;;;21.70;90.50;;;;;;5073362;28;20031;-91
2021/06/07 07:52:10;;;;;;;7.68;4.32;;;22.00;90.10;;;;;;5090079;28;20036;-89
2021/06/07 07:54:36;;;;;;;4.13;3.60;;;22.10;90.00;;;;;;5071275;28;20032;-90
2021/06/07 07:57:21;;;;;;;4.28;3.88;;;22.40;89.10;;;;;;5073629;28;20028;-91
2021/06/07 07:59:46;;;;;;;4.93;3.67;;;22.40;88.40;;;;;;5056762;28;20552;-87
2021/06/07 08:02:14;;;;;;;5.30;3.92;;;22.30;87.80;;;;;;5073102;28;20109;-87
2021/06/07 08:04:45;;;;;;;4.75;3.47;;;21.90;88.80;;;;;;5072801;28;20025;-89
2021/06/07 08:07:14;;;;;;;3.65;3.30;;;21.70;89.90;;;;;;5073462;28;20036;-89
2021/06/07 08:10:22;;;;;;;8.18;6.88;;;21.90;89.60;;;;;;5056459;28;20466;-89
2021/06/07 08:12:49;;;;;;;4.53;3.80;;;22.00;89.50;;;;;;5089081;28;20032;-89
2021/06/07 08:15:18;;;;;;;7.57;4.03;;;22.40;88.90;;;;;;5071813;28;20020;-88
2021/06/07 08:17:57;;;;;;;4.80;3.70;;;22.60;88.80;;;;;;5071726;28;20027;-88
2021/06/07 08:20:37;;;;;;;6.22;4.13;;;22.80;88.10;;;;;;5074458;28;20029;-90
2021/06/07 08:23:06;;;;;;;3.83;3.53;;;22.80;87.90;;;;;;5078158;28;20092;-90
2021/06/07 08:25:49;;;;;;;4.07;3.67;;;22.80;87.90;;;;;;5077912;28;20081;-89
2021/06/07 08:28:17;;;;;;;4.13;3.58;;;22.70;88.60;;;;;;5093102;28;20027;-91
2021/06/07 08:30:45;;;;;;;4.88;3.63;;;22.70;87.40;;;;;;5086132;28;20024;-96
2021/06/07 08:33:29;;;;;;;;;;;;;;;;;;;;;
2021/06/07 08:35:58;;;;;;;5.53;3.30;;;22.70;88.00;;;;;;5073815;28;20466;-96
2021/06/07 08:38:25;;;;;;;4.30;3.90;;;22.50;86.80;;;;;;5058691;28;20029;-96
2021/06/07 08:40:53;;;;;;;4.15;3.30;;;22.50;87.10;;;;;;5058506;28;20098;-92
2021/06/07 08:43:25;;;;;;;3.30;3.00;;;22.70;86.50;;;;;;5074299;28;20051;-92
2021/06/07 08:45:53;;;;;;;3.47;3.17;;;22.80;85.70;;;;;;5057961;28;20029;-91
2021/06/07 08:48:21;;;;;;;3.85;3.40;;;22.90;86.30;;;;;;5074699;28;20494;-94
2021/06/07 08:50:47;;;;;;;3.42;3.13;;;22.80;85.50;;;;;;5077033;28;20075;-89
2021/06/07 08:53:36;;;;;;;3.30;3.00;;;23.00;86.00;;;;;;5060308;28;20039;-90
2021/06/07 08:56:04;;;;;;;5.85;3.90;;;22.80;85.40;;;;;;5075189;28;20152;-90
2021/06/07 08:58:31;;;;;;;3.78;3.28;;;22.50;87.40;;;;;;5076922;28;20032;-95
2021/06/07 09:00:59;;;;;;;4.18;3.72;;;22.40;86.80;;;;;;5077393;28;20170;-91
2021/06/07 09:03:36;;;;;;;3.75;3.40;;;22.40;87.60;;;;;;5072535;28;20036;-92
2021/06/07 09:06:04;;;;;;;3.75;3.40;;;22.30;87.90;;;;;;5078848;28;20033;-91
2021/06/07 09:08:51;;;;;;;3.70;3.38;;;22.40;88.50;;;;;;5060122;28;20503;-93
2021/06/07 09:11:18;;;;;;;3.97;3.67;;;22.10;88.00;;;;;;5079156;28;20127;-92
2021/06/07 09:13:44;;;;;;;4.13;3.33;;;21.90;87.80;;;;;;5059770;28;20035;-91
2021/06/07 09:16:11;;;;;;;5.63;3.60;;;21.80;88.40;;;;;;5076588;28;20031;-94
2021/06/07 09:18:43;;;;;;;3.45;3.15;;;21.90;89.20;;;;;;5076329;28;20086;-91
2021/06/07 09:21:12;;;;;;;4.68;3.20;;;21.80;88.50;;;;;;5076651;28;20099;-93
2021/06/07 09:23:39;;;;;;;3.60;3.22;;;22.00;88.60;;;;;;5093652;28;20028;-95
2021/06/07 09:26:26;;;;;;;5.35;3.50;;;22.00;88.50;;;;;;5093505;28;20056;-93
2021/06/07 09:29:02;;;;;;;3.80;3.20;;;22.00;88.70;;;;;;5076629;28;20051;-94
2021/06/07 09:31:35;;;;;;;4.13;2.90;;;21.80;88.20;;;;;;5076336;28;20055;-92
2021/06/07 09:34:07;;;;;;;2.90;2.67;;;21.80;87.70;;;;;;5077215;28;20063;-94
2021/06/07 09:36:35;;;;;;;4.82;2.47;;;21.80;87.50;;;;;;5093348;28;20027;-95
2021/06/07 09:39:24;;;;;;;3.05;2.63;;;21.90;86.90;;;;;;5077091;28;20107;-92
2021/06/07 09:42:23;;;;;;;3.35;3.05;;;22.00;87.40;;;;;;5076076;28;20111;-93
2021/06/07 09:44:54;;;;;;;2.80;2.60;;;22.20;87.50;;;;;;5077450;28;20036;-93
2021/06/07 09:47:31;;;;;;;2.70;2.50;;;22.30;86.80;;;;;;5075823;28;20077;-93
2021/06/07 09:50:08;;;;;;;2.55;2.35;;;22.50;86.10;;;;;;5093782;28;20130;-92
2021/06/07 09:52:43;;;;;;;3.33;2.63;;;22.90;84.90;;;;;;5095934;28;20024;-88
2021/06/07 09:55:17;;;;;;;2.70;2.50;;;23.20;83.20;;;;;;5096099;28;20024;-86
2021/06/07 09:58:04;;;;;;;3.05;2.75;;;23.30;82.00;;;;;;5095746;28;20039;-92
2021/06/07 10:00:44;;;;;;;3.28;2.40;;;23.50;81.50;;;;;;5096148;28;20020;-91
2021/06/07 10:03:25;;;;;;;2.95;2.45;;;23.60;79.90;;;;;;5096199;28;20477;-95
2021/06/07 10:06:16;;;;;;;4.32;2.45;;;23.60;80.40;;;;;;5097071;28;20043;-92
2021/06/07 10:09:08;;;;;;;2.67;2.45;;;23.60;79.40;;;;;;5095642;28;20477;-93
2021/06/07 10:11:40;;;;;;;3.28;2.55;;;23.50;80.00;;;;;;5097145;28;20020;-95
2021/06/07 10:14:31;;;;;;;4.65;2.25;;;23.30;80.10;;;;;;5097880;28;20027;-94
2021/06/07 10:17:03;;;;;;;2.65;2.05;;;23.10;80.60;;;;;;5097840;28;20558;-93
2021/06/07 10:19:33;;;;;;;2.28;2.08;;;23.20;80.40;;;;;;5080435;28;20039;-94
2021/06/07 10:22:04;;;;;;;2.30;2.10;;;23.30;80.00;;;;;;5075516;28;20043;-95
2021/06/07 10:24:31;;;;;;;2.30;2.20;;;23.60;80.00;;;;;;5075925;28;20048;-92
2021/06/07 10:26:56;;;;;;;2.20;1.83;;;23.60;78.40;;;;;;5075439;28;20021;-91
2021/06/07 10:29:37;;;;;;;2.97;2.15;;;23.60;77.70;;;;;;5076185;28;20525;-92
2021/06/07 10:32:18;;;;;;;3.78;2.30;;;23.80;77.80;;;;;;5075222;28;20036;-93
2021/06/07 10:34:52;;;;;;;2.40;2.20;;;24.00;77.40;;;;;;5075122;28;20032;-94
2021/06/07 10:37:22;;;;;;;2.72;2.50;;;24.10;77.20;;;;;;5076559;28;20036;-93
2021/06/07 10:39:51;;;;;;;2.80;2.60;;;24.10;77.80;;;;;;5076497;28;20095;-91
2021/06/07 10:42:24;;;;;;;2.70;2.50;;;24.40;77.50;;;;;;5076087;28;20104;-94
2021/06/07 10:44:56;;;;;;;4.15;2.30;;;24.60;77.10;;;;;;5075025;28;20028;-93
2021/06/07 10:47:45;;;;;;;2.60;2.38;;;24.70;76.60;;;;;;5076662;28;20086;-94
2021/06/07 10:50:13;;;;;;;3.00;2.80;;;24.50;77.20;;;;;;5095624;28;20035;-96
2021/06/07 10:52:53;;;;;;;7.45;2.90;;;24.30;77.20;;;;;;5095780;28;20039;-91
2021/06/07 10:55:33;;;;;;;2.80;2.60;;;24.10;78.00;;;;;;5080644;28;20039;-96
2021/06/07 10:58:15;;;;;;;2.97;2.40;;;23.70;79.30;;;;;;5096384;28;20020;-90
2021/06/07 11:00:49;;;;;;;3.25;2.80;;;23.30;80.50;;;;;;5094491;28;20035;-95
2021/06/07 11:03:23;;;;;;;5.30;3.00;;;23.10;80.80;;;;;;5095721;28;20465;-91
2021/06/07 11:06:06;;;;;;;4.40;2.35;;;22.70;81.90;;;;;;5094463;28;20032;-92
2021/06/07 11:08:36;;;;;;;4.72;2.95;;;22.30;82.40;;;;;;5076405;28;20035;-96
2021/06/07 11:11:13;;;;;;;3.20;2.90;;;21.90;86.70;;;;;;5078763;28;20077;-95
2021/06/07 11:13:50;;;;;;;4.07;3.03;;;21.20;91.40;;;;;;5093220;28;20050;-87
2021/06/07 11:16:32;;;;;;;3.80;3.50;;;20.30;94.70;;;;;;5094883;28;20048;-92
2021/06/07 11:19:27;;;;;;;3.40;3.00;;;19.50;95.70;;;;;;5094336;28;20051;-90
2021/06/07 11:22:02;;;;;;;4.60;3.20;;;19.00;97.20;;;;;;5095247;28;20028;-88
2021/06/07 11:24:43;;;;;;;4.47;3.20;;;18.60;96.90;;;;;;5094153;28;20422;-85
2021/06/07 11:27:44;;;;;;;4.47;3.30;;;18.30;97.90;;;;;;5093802;28;20103;-88
2021/06/07 11:30:20;;;;;;;4.30;3.10;;;18.20;99.60;;;;;;5074299;28;20028;-88
2021/06/07 11:32:47;;;;;;;3.28;2.97;;;18.30;98.00;;;;;;5075472;28;20057;-89
2021/06/07 11:35:44;;;;;;;4.72;2.60;;;18.30;98.30;;;;;;5073653;28;20024;-93
2021/06/07 11:38:28;;;;;;;4.63;2.60;;;18.40;97.00;;;;;;5072617;28;20374;-87
2021/06/07 11:41:00;;;;;;;2.42;2.22;;;18.40;97.00;;;;;;5074496;28;20099;-87
2021/06/07 11:43:45;;;;;;;2.67;2.20;;;18.30;97.10;;;;;;5073279;28;20024;-89
2021/06/07 11:46:13;;;;;;;2.30;1.85;;;18.40;98.10;;;;;;5090057;28;20021;-91
2021/06/07 11:49:12;;;;;;;2.72;2.20;;;18.40;96.80;;;;;;5057116;28;20062;-90
2021/06/07 11:51:52;;;;;;;;;;;;;;;;;;;;;
2021/06/07 11:54:36;;;;;;;4.22;2.90;;;18.50;97.30;;;;;;5073619;28;20508;-90
2021/06/07 11:57:08;;;;;;;2.80;2.60;;;18.60;96.60;;;;;;5074954;28;20397;-90
2021/06/07 11:59:40;;;;;;;4.63;3.13;;;18.70;97.20;;;;;;5073572;28;20115;-90
2021/06/07 12:02:14;;;;;;;3.08;2.60;;;18.90;97.50;;;;;;5057004;28;20116;-90
2021/06/07 12:04:42;;;;;;;3.10;2.90;;;19.00;95.50;;;;;;5070768;28;20028;-88
2021/06/07 12:07:12;;;;;;;3.03;2.70;;;19.30;96.00;;;;;;5073327;28;20024;-93
2021/06/07 12:09:41;;;;;;;4.68;2.80;;;19.80;95.50;;;;;;5074504;28;20024;-91
2021/06/07 12:12:10;;;;;;;2.97;2.77;;;20.30;94.00;;;;;;5073329;28;20024;-93
2021/06/07 12:14:39;;;;;;;2.78;2.58;;;20.80;94.10;;;;;;5073794;28;20035;-90
2021/06/07 12:17:09;;;;;;;3.33;3.03;;;21.40;93.80;;;;;;5073693;28;20025;-89
2021/06/07 12:19:40;;;;;;;7.85;3.40;;;21.90;91.10;;;;;;5074003;28;20036;-88
2021/06/07 12:22:28;;;;;;;4.03;3.50;;;22.30;91.40;;;;;;5073257;28;20032;-89
2021/06/07 12:25:42;;;;;;;;;;;;;;;;;;;;;
2021/06/07 12:28:24;;;;;;;3.85;3.50;;;23.00;88.70;;;;;;5074805;28;20348;-94
2021/06/07 12:30:55;;;;;;;3.30;3.10;;;23.20;86.80;;;;;;5073755;28;20025;-87
2021/06/07 12:33:31;;;;;;;4.63;3.60;;;23.50;85.00;;;;;;5072470;28;20611;-94
2021/06/07 12:36:06;;;;;;;3.75;3.35;;;23.70;84.00;;;;;;5056563;28;20052;-93
2021/06/07 12:38:41;;;;;;;5.63;3.70;;;23.90;85.80;;;;;;5073080;28;20025;-88
2021/06/07 12:41:09;;;;;;;4.38;3.65;;;24.30;82.90;;;;;;5056600;28;20055;-87
2021/06/07 12:43:42;;;;;;;5.35;3.47;;;24.40;82.60;;;;;;5072740;28;20055;-86
2021/06/07 12:46:08;;;;;;;4.57;3.70;;;24.60;82.50;;;;;;5072415;28;20028;-87
2021/06/07 12:48:58;;;;;;;4.95;4.40;;;24.70;82.20;;;;;;5071245;28;20079;-96
2021/06/07 12:51:26;;;;;;;4.60;4.20;;;24.60;81.90;;;;;;5076159;28;20070;-91
2021/06/07 12:54:13;;;;;;;5.00;4.23;;;24.50;83.30;;;;;;5092776;28;20032;-92
2021/06/07 12:56:41;;;;;;;4.68;4.28;;;24.20;83.80;;;;;;5094109;28;20516;-89
2021/06/07 12:59:16;;;;;;;5.15;4.40;;;23.60;86.20;;;;;;5092885;28;20040;-91
2021/06/07 13:01:48;;;;;;;5.07;4.53;;;23.40;86.50;;;;;;5076171;28;20028;-88
2021/06/07 13:04:24;;;;;;;5.10;4.50;;;23.30;87.90;;;;;;5092653;28;20051;-88
2021/06/07 13:07:08;;;;;;;8.77;4.82;;;23.30;87.60;;;;;;5077925;28;20466;-88
2021/06/07 13:09:39;;;;;;;6.13;4.60;;;23.20;88.90;;;;;;5093764;28;20039;-88
2021/06/07 13:12:15;;;;;;;4.63;4.22;;;23.10;88.50;;;;;;5090630;28;20553;-86
2021/06/07 13:14:41;;;;;;;4.82;4.32;;;23.20;87.90;;;;;;5092629;28;20024;-88
2021/06/07 13:17:14;;;;;;;5.25;3.40;;;23.40;87.90;;;;;;5092865;28;20023;-90
2021/06/07 13:19:53;;;;;;;3.72;3.42;;;23.60;84.50;;;;;;5092428;28;20115;-92
2021/06/07 13:22:22;;;;;;;8.05;4.93;;;23.70;80.50;;;;;;5093371;28;20027;-89